Home > Products > Valid Products > MTR

000
SAUS44 KLIX 070152
MTRBVE
METAR KBVE 070151Z AUTO 11005KT 10SM CLR 22/21 A3005 RMK AO2 SLP174
T02220206





000
SAUS44 KLIX 070052
MTRBVE
METAR KBVE 070051Z AUTO 11005KT 10SM CLR 23/21 A3003 RMK AO2 SLP170
T02280206





000
SAUS44 KLIX 070052
MTRBVE
METAR KBVE 070051Z AUTO 11005KT 10SM CLR 23/21 A3003 RMK AO2 SLP170
T02280206





000
SAUS44 KLIX 062356 COR
MTRBVE
METAR KBVE 062351Z AUTO 11007KT 10SM CLR 24/20 A3004 RMK AO2 SLP171
T02440200 10272 20244 56001





000
SAUS44 KLIX 062356 COR
MTRBVE
METAR KBVE 062351Z AUTO 11007KT 10SM CLR 24/20 A3004 RMK AO2 SLP171
T02440200 10272 20244 56001





000
SAUS44 KLIX 062353 COR
MTRBVE
METAR KBVE 062351Z AUTO 11007KT 10SM CLR 24/20 A3004 RMK AO2 SLP171
T02440200 10272 20244 56001





000
SAUS44 KLIX 062352
MTRBVE
METAR KBVE 062351Z AUTO 11007KT 10SM CLR 24/20 A3004 RMK AO2 SLP171
T02440200 10272 20244 56001





000
SAUS44 KLIX 062252
MTRBVE
METAR KBVE 062251Z AUTO 10009KT 10SM FEW036 FEW045 26/19 A3004 RMK
AO2 SLP171 T02610194





000
SAUS44 KLIX 062152
MTRBVE
METAR KBVE 062151Z AUTO 17007KT 10SM CLR 27/19 A3004 RMK AO2 SLP171
T02720189





000
SAUS44 KLIX 062053
MTRBVE
METAR KBVE 062051Z AUTO 17008KT 10SM CLR 27/19 A3004 RMK AO2 SLP172
T02670194 58005





000
SAUS44 KLIX 062053
MTRBVE
METAR KBVE 062051Z AUTO 17008KT 10SM CLR 27/19 A3004 RMK AO2 SLP172
T02670194 58005





000
SAUS44 KLIX 062013
MTRBVE
SPECI KBVE 062012Z AUTO 18008KT 10SM SCT029 27/21 A3005 RMK AO2
T02720206





000
SAUS44 KLIX 061952
MTRBVE
METAR KBVE 061951Z AUTO 16009KT 10SM BKN029 OVC070 26/21 A3005 RMK
AO2 SLP176 T02610206





000
SAUS44 KLIX 061852
MTRBVE
METAR KBVE 061851Z AUTO 08008KT 10SM FEW024 BKN070 26/21 A3006 RMK
AO2 SLP177 T02610211





000
SAUS44 KLIX 061852
MTRBVE
METAR KBVE 061851Z AUTO 08008KT 10SM FEW024 BKN070 26/21 A3006 RMK
AO2 SLP177 T02610211





000
SAUS44 KLIX 061753 COR
MTRBVE
METAR KBVE 061751Z AUTO 08009KT 10SM CLR 26/21 A3007 RMK AO2 SLP183
60000 T02560206 10267 20206 58006





000
SAUS44 KLIX 061753 COR
MTRBVE
METAR KBVE 061751Z AUTO 08009KT 10SM CLR 26/21 A3007 RMK AO2 SLP183
60000 T02560206 10267 20206 58006





000
SAUS44 KLIX 061652
MTRBVE
METAR KBVE 061651Z AUTO 09011KT 10SM FEW025 SCT048 26/22 A3009 RMK
AO2 SLP190 T02610217





000
SAUS44 KLIX 061552
MTRBVE
METAR KBVE 061551Z AUTO 10008KT 10SM CLR 26/21 A3009 RMK AO2
RAB1456E05 SLP190 P0000 T02610211





000
SAUS44 KLIX 061529
MTRBVE
SPECI KBVE 061528Z AUTO 10010KT 10SM SCT016 SCT070 26/21 A3010 RMK
AO2 RAB1456E05 P0000 T02560211





000
SAUS44 KLIX 061529
MTRBVE
SPECI KBVE 061528Z AUTO 10010KT 10SM SCT016 SCT070 26/21 A3010 RMK
AO2 RAB1456E05 P0000 T02560211





000
SAUS44 KLIX 061506
MTRBVE
SPECI KBVE 061505Z AUTO 14003KT 10SM BKN018 BKN026 OVC042 23/21
A3010 RMK AO2 RAB1456E05 P0000 T02280211





000
SAUS44 KLIX 061452
MTRBVE
METAR KBVE 061451Z AUTO 05006KT 10SM FEW023 BKN035 OVC060 23/21
A3009 RMK AO2 SLP190 T02330206 51009





000
SAUS44 KLIX 061352
MTRBVE
METAR KBVE 061351Z AUTO 05004KT 10SM BKN044 24/21 A3009 RMK AO2
SLP190 T02390206





000
SAUS44 KLIX 061252
MTRBVE
METAR KBVE 061251Z AUTO 00000KT 10SM CLR 22/20 A3009 RMK AO2 SLP189
T02220200





000
SAUS44 KLIX 061252
MTRBVE
METAR KBVE 061251Z AUTO 00000KT 10SM CLR 22/20 A3009 RMK AO2 SLP189
T02220200





000
SAUS44 KLIX 061158 COR
MTRBVE
METAR KBVE 061151Z AUTO 10004KT 10SM CLR 21/19 A3007 RMK AO2 SLP181
T02060189 10211 20200 53005





000
SAUS44 KLIX 061158 COR
MTRBVE
METAR KBVE 061151Z AUTO 10004KT 10SM CLR 21/19 A3007 RMK AO2 SLP181
T02060189 10211 20200 53005





000
SAUS44 KLIX 061157 COR
MTRBVE
METAR KBVE 061151Z AUTO 10004KT 10SM CLR 21/19 A3007 RMK AO2 SLP181
T02060189 10211 20200 53005





000
SAUS44 KLIX 061153 COR
MTRBVE
METAR KBVE 061151Z AUTO 10004KT 10SM CLR 21/19 A3007 RMK AO2 SLP181
T02060189 10211 20200 53005





000
SAUS44 KLIX 061052
MTRBVE
METAR KBVE 061051Z AUTO 09005KT 10SM CLR 20/19 A3005 RMK AO2 SLP177
T02000189





000
SAUS44 KLIX 061052
MTRBVE
METAR KBVE 061051Z AUTO 09005KT 10SM CLR 20/19 A3005 RMK AO2 SLP177
T02000189





000
SAUS44 KLIX 060953
MTRBVE
METAR KBVE 060951Z AUTO 11005KT 10SM CLR 21/18 A3005 RMK AO2 SLP175
T02060183





000
SAUS44 KLIX 060852
MTRBVE
METAR KBVE 060851Z AUTO 10005KT 10SM CLR 21/18 A3005 RMK AO2 SLP175
T02060183 56019





000
SAUS44 KLIX 060852
MTRBVE
METAR KBVE 060851Z AUTO 10005KT 10SM CLR 21/18 A3005 RMK AO2 SLP175
T02060183 56019





000
SAUS44 KLIX 060752
MTRBVE
METAR KBVE 060751Z AUTO 10005KT 10SM FEW025 21/19 A3006 RMK AO2
SLP178 T02110189





000
SAUS44 KLIX 060752
MTRBVE
METAR KBVE 060751Z AUTO 10005KT 10SM FEW025 21/19 A3006 RMK AO2
SLP178 T02110189





000
SAUS44 KLIX 060652
MTRBVE
METAR KBVE 060651Z AUTO 10004KT 10SM CLR 21/19 A3008 RMK AO2 SLP186
T02060189





000
SAUS44 KLIX 060552
MTRBVE
METAR KBVE 060551Z AUTO 10003KT 10SM CLR 21/19 A3011 RMK AO2 SLP194
T02110194 10239 20206 402610206 58006





000
SAUS44 KLIX 060552
MTRBVE
METAR KBVE 060551Z AUTO 10003KT 10SM CLR 21/19 A3011 RMK AO2 SLP194
T02110194 10239 20206 402610206 58006





000
SAUS44 KLIX 060452
MTRBVE
METAR KBVE 060451Z AUTO 10004KT 10SM CLR 21/19 A3012 RMK AO2 SLP201
T02110189





000
SAUS44 KLIX 060352
MTRBVE
METAR KBVE 060351Z AUTO 11004KT 10SM CLR 21/19 A3013 RMK AO2 SLP202
T02110189





000
SAUS44 KLIX 060352
MTRBVE
METAR KBVE 060351Z AUTO 11004KT 10SM CLR 21/19 A3013 RMK AO2 SLP202
T02110189





000
SAUS44 KLIX 060252
MTRBVE
METAR KBVE 060251Z AUTO 11005KT 10SM CLR 22/19 A3012 RMK AO2 SLP200
T02170189 53008





000
SAUS44 KLIX 060152
MTRBVE
METAR KBVE 060151Z AUTO 10006KT 10SM CLR 22/19 A3012 RMK AO2 SLP197
T02220189





000
SAUS44 KLIX 060052
MTRBVE
METAR KBVE 060051Z AUTO 08008KT 10SM CLR 23/19 A3010 RMK AO2 SLP194
T02280189





000
SAUS44 KLIX 052352
MTRBVE
METAR KBVE 052351Z AUTO 09009KT 10SM CLR 24/17 A3010 RMK AO2 SLP192
T02390172 10261 20239 56008





000
SAUS44 KLIX 052252
MTRBVE
METAR KBVE 052251Z AUTO 09012G19KT 10SM CLR 24/17 A3010 RMK AO2
SLP193 T02440172





000
SAUS44 KLIX 052154 COR
MTRBVE
METAR KBVE 052151Z AUTO 09012KT 10SM FEW031 25/17 A3011 RMK AO2
SLP196 T02500172





000
SAUS44 KLIX 052153 COR
MTRBVE
METAR KBVE 052151Z AUTO 09012KT 10SM FEW031 25/17 A3011 RMK AO2
SLP196 T02500172





000
SAUS44 KLIX 052152
MTRBVE
METAR KBVE 052151Z AUTO 09012KT 10SM FEW031 25/17 A3011 RMK AO2
SLP196 T02500172





000
SAUS44 KLIX 052052
MTRBVE
METAR KBVE 052051Z AUTO 09013KT 10SM FEW029 FEW037 SCT060 25/17
A3012 RMK AO2 SLP200 T02500172 58018





000
SAUS44 KLIX 051952
MTRBVE
METAR KBVE 051951Z AUTO 09009KT 10SM FEW032 26/18 A3015 RMK AO2
SLP208 T02610183





000
SAUS44 KLIX 051852
MTRBVE
METAR KBVE 051851Z AUTO 08012KT 10SM FEW032 26/19 A3016 RMK AO2
SLP212 T02610189





000
SAUS44 KLIX 051756 COR
MTRBVE
METAR KBVE 051751Z AUTO 09011KT 10SM CLR 26/19 A3018 RMK AO2 SLP218
T02610189 10261 20206 58002





000
SAUS44 KLIX 051756 COR
MTRBVE
METAR KBVE 051751Z AUTO 09011KT 10SM CLR 26/19 A3018 RMK AO2 SLP218
T02610189 10261 20206 58002





000
SAUS44 KLIX 051753 COR
MTRBVE
METAR KBVE 051751Z AUTO 09011KT 10SM CLR 26/19 A3018 RMK AO2 SLP218
T02610189 10261 20206 58002





000
SAUS44 KLIX 051753 COR
MTRBVE
METAR KBVE 051751Z AUTO 09011KT 10SM CLR 26/19 A3018 RMK AO2 SLP218
T02610189 10261 20206 58002





000
SAUS44 KLIX 051652
MTRBVE
METAR KBVE 051651Z AUTO 09010KT 10SM FEW026 26/19 A3019 RMK AO2
SLP223 T02610194





000
SAUS44 KLIX 051552
MTRBVE
METAR KBVE 051551Z AUTO 11010G18KT 10SM FEW027 26/19 A3020 RMK AO2
SLP225 T02610189





000
SAUS44 KLIX 051552
MTRBVE
METAR KBVE 051551Z AUTO 11010G18KT 10SM FEW027 26/19 A3020 RMK AO2
SLP225 T02610189





000
SAUS44 KLIX 051453
MTRBVE
METAR KBVE 051451Z AUTO 10011KT 10SM FEW025 26/19 A3018 RMK AO2
SLP219 T02560194 51009





000
SAUS44 KLIX 051453
MTRBVE
METAR KBVE 051451Z AUTO 10011KT 10SM FEW025 26/19 A3018 RMK AO2
SLP219 T02560194 51009





000
SAUS44 KLIX 051352
MTRBVE
METAR KBVE 051351Z AUTO 10010KT 10SM CLR 24/19 A3018 RMK AO2 SLP218
T02440189





000
SAUS44 KLIX 051252
MTRBVE
METAR KBVE 051251Z AUTO 10004KT 10SM CLR 23/19 A3017 RMK AO2 SLP214
T02280194





000
SAUS44 KLIX 051252
MTRBVE
METAR KBVE 051251Z AUTO 10004KT 10SM CLR 23/19 A3017 RMK AO2 SLP214
T02280194





000
SAUS44 KLIX 051156 COR
MTRBVE
METAR KBVE 051151Z AUTO 09004KT 10SM CLR 21/18 A3015 RMK AO2 SLP210
T02060183 10211 20206 53006





000
SAUS44 KLIX 051156 COR
MTRBVE
METAR KBVE 051151Z AUTO 09004KT 10SM CLR 21/18 A3015 RMK AO2 SLP210
T02060183 10211 20206 53006





000
SAUS44 KLIX 051153 COR
MTRBVE
METAR KBVE 051151Z AUTO 09004KT 10SM CLR 21/18 A3015 RMK AO2 SLP210
T02060183 10211 20206 53006





000
SAUS44 KLIX 051153 COR
MTRBVE
METAR KBVE 051151Z AUTO 09004KT 10SM CLR 21/18 A3015 RMK AO2 SLP210
T02060183 10211 20206 53006





000
SAUS44 KLIX 051052 COR
MTRBVE
METAR KBVE 051051Z AUTO 09005KT 10SM CLR 21/18 A3014 RMK AO2 SLP207
T02060183





000
SAUS44 KLIX 051052 COR
MTRBVE
METAR KBVE 051051Z AUTO 09005KT 10SM CLR 21/18 A3014 RMK AO2 SLP207
T02060183





000
SAUS44 KLIX 050952
MTRBVE
METAR KBVE 050951Z AUTO 10006KT 10SM CLR 21/18 A3014 RMK AO2 SLP204
T02060183





000
SAUS44 KLIX 050852
MTRBVE
METAR KBVE 050851Z AUTO 09005KT 10SM CLR 21/18 A3013 RMK AO2 SLP204
T02060178 56010





000
SAUS44 KLIX 050852
MTRBVE
METAR KBVE 050851Z AUTO 09005KT 10SM CLR 21/18 A3013 RMK AO2 SLP204
T02060178 56010





000
SAUS44 KLIX 050752
MTRBVE
METAR KBVE 050751Z AUTO 10005KT 10SM CLR 21/18 A3014 RMK AO2 SLP204
T02060178





000
SAUS44 KLIX 050653
MTRBVE
METAR KBVE 050651Z AUTO 10004KT 10SM CLR 21/18 A3015 RMK AO2 SLP209
T02060178





000
SAUS44 KLIX 050653
MTRBVE
METAR KBVE 050651Z AUTO 10004KT 10SM CLR 21/18 A3015 RMK AO2 SLP209
T02060178





000
SAUS44 KLIX 050552
MTRBVE
METAR KBVE 050551Z AUTO 11005KT 10SM CLR 21/18 A3016 RMK AO2 SLP214
T02110178 10244 20211 402670206 58001





000
SAUS44 KLIX 050452
MTRBVE
METAR KBVE 050451Z AUTO 11006KT 10SM CLR 21/17 A3018 RMK AO2 SLP218
T02110172





000
SAUS44 KLIX 050352
MTRBVE
METAR KBVE 050351Z AUTO 10005KT 10SM CLR 21/17 A3018 RMK AO2 SLP218
T02110167





000
SAUS44 KLIX 050252
MTRBVE
METAR KBVE 050251Z AUTO 10003KT 10SM CLR 21/17 A3017 RMK AO2 SLP215
T02110172 53008





000
SAUS44 KLIX 050152
MTRBVE
METAR KBVE 050151Z AUTO 12006KT 10SM CLR 22/17 A3016 RMK AO2 SLP212
T02220167





000
SAUS44 KLIX 050152
MTRBVE
METAR KBVE 050151Z AUTO 12006KT 10SM CLR 22/17 A3016 RMK AO2 SLP212
T02220167





000
SAUS44 KLIX 050052
MTRBVE
METAR KBVE 050051Z AUTO 11008KT 10SM CLR 23/17 A3015 RMK AO2 SLP208
T02280172





000
SAUS44 KLIX 042352
MTRBVE
METAR KBVE 042351Z AUTO 11009KT 10SM CLR 24/18 A3014 RMK AO2 SLP207
T02440178 10267 20244 58004





000
SAUS44 KLIX 042352
MTRBVE
METAR KBVE 042351Z AUTO 11009KT 10SM CLR 24/18 A3014 RMK AO2 SLP207
T02440178 10267 20244 58004





000
SAUS44 KLIX 042252
MTRBVE
METAR KBVE 042251Z AUTO 10011KT 10SM FEW028 25/19 A3016 RMK AO2
SLP213 T02500189





000
SAUS44 KLIX 042252
MTRBVE
METAR KBVE 042251Z AUTO 10011KT 10SM FEW028 25/19 A3016 RMK AO2
SLP213 T02500189





000
SAUS44 KLIX 042152
MTRBVE
METAR KBVE 042151Z AUTO 11012KT 10SM FEW024 25/20 A3016 RMK AO2
SLP212 T02500200





000
SAUS44 KLIX 042152
MTRBVE
METAR KBVE 042151Z AUTO 11012KT 10SM FEW024 25/20 A3016 RMK AO2
SLP212 T02500200





000
SAUS44 KLIX 042052
MTRBVE
METAR KBVE 042051Z AUTO 12011G19KT 10SM FEW023 SCT029 BKN050 25/19
A3016 RMK AO2 SLP211 T02500194 58014





000
SAUS44 KLIX 041956 COR
MTRBVE
METAR KBVE 041951Z AUTO 10011G16KT 10SM FEW029 26/19 A3018 RMK AO2
SLP219 T02560194





000
SAUS44 KLIX 041953 COR
MTRBVE
METAR KBVE 041951Z AUTO 10011G16KT 10SM FEW029 26/19 A3018 RMK AO2
SLP219 T02560194





000
SAUS44 KLIX 041953 COR
MTRBVE
METAR KBVE 041951Z AUTO 10011G16KT 10SM FEW029 26/19 A3018 RMK AO2
SLP219 T02560194





000
SAUS44 KLIX 041952
MTRBVE
METAR KBVE 041951Z AUTO 10011G16KT 10SM FEW029 26/19 A3018 RMK AO2
SLP219 T02560194





000
SAUS44 KLIX 041852
MTRBVE
METAR KBVE 041851Z AUTO 10010G17KT 10SM CLR 26/19 A3018 RMK AO2
SLP218 T02610194





000
SAUS44 KLIX 041756 COR
MTRBVE
METAR KBVE 041751Z AUTO 10011KT 10SM BKN100 26/19 A3020 RMK AO2
SLP225 T02610189 10261 20211 50007





000
SAUS44 KLIX 041756 COR
MTRBVE
METAR KBVE 041751Z AUTO 10011KT 10SM BKN100 26/19 A3020 RMK AO2
SLP225 T02610189 10261 20211 50007





000
SAUS44 KLIX 041753 COR
MTRBVE
METAR KBVE 041751Z AUTO 10011KT 10SM BKN100 26/19 A3020 RMK AO2
SLP225 T02610189 10261 20211 50007





000
SAUS44 KLIX 041753 COR
MTRBVE
METAR KBVE 041751Z AUTO 10011KT 10SM BKN100 26/19 A3020 RMK AO2
SLP225 T02610189 10261 20211 50007





000
SAUS44 KLIX 041752
MTRBVE
METAR KBVE 041751Z AUTO 10011KT 10SM BKN100 26/19 A3020 RMK AO2
SLP225 T02610189 10261 20211 50007





000
SAUS44 KLIX 041652
MTRBVE
METAR KBVE 041651Z AUTO 11012G20KT 10SM FEW027 26/19 A3020 RMK AO2
SLP226 T02560189





000
SAUS44 KLIX 041652
MTRBVE
METAR KBVE 041651Z AUTO 11012G20KT 10SM FEW027 26/19 A3020 RMK AO2
SLP226 T02560189





000
SAUS44 KLIX 041553
MTRBVE
METAR KBVE 041551Z AUTO 10013KT 10SM CLR 26/18 A3019 RMK AO2 SLP222
T02560178





000
SAUS44 KLIX 041453 COR
MTRBVE
METAR KBVE 041451Z AUTO 10011G18KT 10SM CLR 25/18 A3018 RMK AO2
SLP218 T02500183 51023





000
SAUS44 KLIX 041453 COR
MTRBVE
METAR KBVE 041451Z AUTO 10011G18KT 10SM CLR 25/18 A3018 RMK AO2
SLP218 T02500183 51023





000
SAUS44 KLIX 041452
MTRBVE
METAR KBVE 041451Z AUTO 10011G18KT 10SM CLR 25/18 A3018 RMK AO2
SLP218 T02500183 51023





000
SAUS44 KLIX 041452
MTRBVE
METAR KBVE 041451Z AUTO 10011G18KT 10SM CLR 25/18 A3018 RMK AO2
SLP218 T02500183 51023





000
SAUS44 KLIX 041352
MTRBVE
METAR KBVE 041351Z AUTO 09007KT 10SM BKN090 24/18 A3016 RMK AO2
SLP211 T02390183





000
SAUS44 KLIX 041352
MTRBVE
METAR KBVE 041351Z AUTO 09007KT 10SM BKN090 24/18 A3016 RMK AO2
SLP211 T02390183





000
SAUS44 KLIX 041252
MTRBVE
METAR KBVE 041251Z AUTO 10006KT 10SM CLR 23/18 A3013 RMK AO2 SLP203
T02280183





000
SAUS44 KLIX 041152
MTRBVE
METAR KBVE 041151Z AUTO 11005KT 10SM CLR 21/18 A3011 RMK AO2 SLP195
60015 70015 T02110183 10222 20206 53012





000
SAUS44 KLIX 041152
MTRBVE
METAR KBVE 041151Z AUTO 11005KT 10SM CLR 21/18 A3011 RMK AO2 SLP195
60015 70015 T02110183 10222 20206 53012





000
SAUS44 KLIX 041053 COR
MTRBVE
METAR KBVE 041051Z AUTO 12004KT 10SM CLR 21/19 A3009 RMK AO2 SLP190
T02110189





000
SAUS44 KLIX 041053 COR
MTRBVE
METAR KBVE 041051Z AUTO 12004KT 10SM CLR 21/19 A3009 RMK AO2 SLP190
T02110189





000
SAUS44 KLIX 040952
MTRBVE
METAR KBVE 040951Z AUTO 12005KT 10SM CLR 22/19 A3007 RMK AO2 SLP184
T02170189





000
SAUS44 KLIX 040853
MTRBVE
METAR KBVE 040851Z AUTO 10007KT 10SM FEW032 SCT050 BKN095 22/19
A3007 RMK AO2 RAE19 SLP183 P0009 60015 T02170194 56012





000
SAUS44 KLIX 040853
MTRBVE
METAR KBVE 040851Z AUTO 10007KT 10SM FEW032 SCT050 BKN095 22/19
A3007 RMK AO2 RAE19 SLP183 P0009 60015 T02170194 56012





000
SAUS44 KLIX 040752
MTRBVE
METAR KBVE 040751Z AUTO 11007KT 7SM -RA FEW029 BKN041 OVC060 21/19
A3008 RMK AO2 RAB03 SLP186 P0006 T02110194





000
SAUS44 KLIX 040656 COR
MTRBVE
METAR KBVE 040651Z AUTO 00000KT 10SM FEW030 BKN040 BKN055 21/19
A3010 RMK AO2 SLP191 T02110189





000
SAUS44 KLIX 040654 COR
MTRBVE
METAR KBVE 040651Z AUTO 00000KT 10SM FEW030 BKN040 BKN055 21/19
A3010 RMK AO2 SLP191 T02110189





000
SAUS44 KLIX 040653 COR
MTRBVE
METAR KBVE 040651Z AUTO 00000KT 10SM FEW030 BKN040 BKN055 21/19
A3010 RMK AO2 SLP191 T02110189





000
SAUS44 KLIX 040652
MTRBVE
METAR KBVE 040651Z AUTO 00000KT 10SM FEW030 BKN040 BKN055 21/19
A3010 RMK AO2 SLP191 T02110189





000
SAUS44 KLIX 040552
MTRBVE
METAR KBVE 040551Z AUTO 00000KT 10SM CLR 21/19 A3011 RMK AO2 SLP195
T02110189 10233 20206 402500183 58005





000
SAUS44 KLIX 040552
MTRBVE
METAR KBVE 040551Z AUTO 00000KT 10SM CLR 21/19 A3011 RMK AO2 SLP195
T02110189 10233 20206 402500183 58005





000
SAUS44 KLIX 040452
MTRBVE
METAR KBVE 040451Z AUTO 00000KT 10SM CLR 21/18 A3012 RMK AO2 SLP198
T02060183





000
SAUS44 KLIX 040353
MTRBVE
METAR KBVE 040351Z AUTO 00000KT 10SM CLR 21/17 A3013 RMK AO2 SLP201
T02060172





000
SAUS44 KLIX 040252
MTRBVE
METAR KBVE 040251Z AUTO 10003KT 10SM CLR 21/17 A3012 RMK AO2 SLP200
T02060172 53010





    US Dept of Commerce
    National Oceanic and Atmospheric Administration
    National Weather Service
    1325 East West Highway
    Silver Spring, MD 20910
    Page Author: NWS Internet Services Team
Disclaimer
Information Quality
Credits
Glossary
Privacy Policy
Freedom of Information Act (FOIA)
About Us
Career Opportunities